Archival Weather

Sydney Intl

Sydney, Australia (YSSY)

Report from: Wednesday, September 20, 2023 10:00 PM AEST
Current time: Tuesday, July 16, 2024 7:23 PM AEST

Current weather – Weather history – Daily summaries
Weather forecast

Present weatherCLOSED
Temperature19.0°C (66.2°F)
Dew point16.0°C (60.8°F)
Winds 22 kts (11.3 m/s, 25.3 mph) South (170°)
Clouds Sky clear
Altimeter29.80 in.Hg (1009 mB)
Relative humidity83 %
Density altitude863 ft. (263 m)
Remarks Ceiling and visibility OK
Flight conditions Visual Meteorological Conditions
Raw dataYSSY 201200Z 17022KT CAVOK 19/16 Q1009 HZ. STATION CLOSED REOPENS 1945Z.
An error has occurred. This application may no longer respond until reloaded. Reload 🗙